createdAt,value
2022-12-11T00:00:46.336Z,100988.91
2022-12-11T00:03:15.902Z,100988.72
2022-12-11T00:05:44.178Z,100985.34
2022-12-11T00:08:11.306Z,100980.09
2022-12-11T00:10:38.312Z,100963.66
2022-12-11T00:13:04.913Z,100963.03
2022-12-11T00:15:31.535Z,100970.28
2022-12-11T00:18:06.189Z,100961.59
2022-12-11T00:20:33.694Z,100966.75
2022-12-11T00:23:00.149Z,100965.75
2022-12-11T00:25:26.597Z,100967.28
2022-12-11T00:27:53.075Z,100968.44
2022-12-11T00:30:19.688Z,100959.44
2022-12-11T00:32:46.122Z,100958.44
2022-12-11T00:35:13.014Z,100957.56
2022-12-11T00:37:39.734Z,100966.34
2022-12-11T00:40:06.882Z,100956.09
2022-12-11T00:42:33.440Z,100951.88
2022-12-11T00:44:59.879Z,100953.25
2022-12-11T00:47:26.476Z,100960.84
2022-12-11T00:49:53.728Z,100952.06
2022-12-11T00:52:20.294Z,100955.53
2022-12-11T00:54:46.731Z,100950.94
2022-12-11T00:57:13.163Z,100955.44
2022-12-11T00:59:39.660Z,100959.03
2022-12-11T01:02:06.127Z,100957.75
2022-12-11T01:04:35.935Z,100961.53
2022-12-11T01:07:02.555Z,100960.56
2022-12-11T01:09:47.715Z,100954.56
2022-12-11T01:12:14.175Z,100962.00
2022-12-11T01:14:41.676Z,100965.63
2022-12-11T01:17:08.199Z,100955.03
2022-12-11T01:19:35.135Z,100948.00
2022-12-11T01:22:02.046Z,100960.13
2022-12-11T01:24:28.864Z,100958.63
2022-12-11T01:26:56.007Z,100961.63
2022-12-11T01:29:22.820Z,100960.75
2022-12-11T01:31:49.271Z,100962.53
2022-12-11T01:34:16.391Z,100960.38
2022-12-11T01:36:44.063Z,100958.13
2022-12-11T01:39:10.559Z,100967.44
2022-12-11T01:41:37.539Z,100965.09
2022-12-11T01:44:27.765Z,100961.66
2022-12-11T01:46:55.132Z,100959.72
2022-12-11T01:49:24.350Z,100961.72
2022-12-11T01:52:10.640Z,100961.31
2022-12-11T01:54:37.759Z,100959.84
2022-12-11T01:57:07.127Z,100966.41
2022-12-11T01:59:36.811Z,100958.00
2022-12-11T02:02:09.578Z,100953.06
2022-12-11T02:04:39.492Z,100959.91
2022-12-11T02:07:06.617Z,100953.94
2022-12-11T02:09:35.899Z,100948.19
2022-12-11T02:12:10.158Z,100953.94
2022-12-11T02:15:13.493Z,100954.91
2022-12-11T02:18:08.770Z,100954.66
2022-12-11T02:20:43.357Z,100960.94
2022-12-11T02:23:12.804Z,100959.06
2022-12-11T02:26:03.960Z,100948.38
2022-12-11T02:28:35.930Z,100954.03
2022-12-11T02:31:14.608Z,100961.38
2022-12-11T02:33:56.811Z,100963.72
2022-12-11T02:36:25.103Z,100956.50
2022-12-11T02:38:53.509Z,100959.69
2022-12-11T02:41:21.768Z,100958.38
2022-12-11T02:43:49.102Z,100956.78
2022-12-11T02:46:18.069Z,100938.84
2022-12-11T02:48:45.859Z,100946.78
2022-12-11T02:51:14.460Z,100948.72
2022-12-11T02:53:42.790Z,100946.97
2022-12-11T02:56:13.503Z,100951.03
2022-12-11T02:58:45.928Z,100942.28
2022-12-11T03:01:12.512Z,100946.94
2022-12-11T03:03:39.050Z,100940.97
2022-12-11T03:06:05.895Z,100950.13
2022-12-11T03:08:32.632Z,100947.50
2022-12-11T03:10:59.216Z,100955.66
2022-12-11T03:13:25.691Z,100953.19
2022-12-11T03:15:55.142Z,100956.91
2022-12-11T03:18:31.248Z,100949.59
2022-12-11T03:21:21.060Z,100949.56
2022-12-11T03:23:51.541Z,100939.22
2022-12-11T03:26:19.563Z,100955.34
2022-12-11T03:28:49.966Z,100942.34
2022-12-11T03:31:31.112Z,100955.56
2022-12-11T03:34:01.119Z,100952.84
2022-12-11T03:36:32.112Z,100953.75
2022-12-11T03:39:02.122Z,100960.00
2022-12-11T03:41:31.215Z,100969.34
2022-12-11T03:43:58.685Z,100968.97
2022-12-11T03:46:30.818Z,100966.63
2022-12-11T03:49:05.348Z,100963.94
2022-12-11T03:51:32.557Z,100962.47
2022-12-11T03:53:59.295Z,100958.72
2022-12-11T03:56:27.076Z,100952.91
2022-12-11T03:58:53.554Z,100955.56
2022-12-11T04:01:20.112Z,100946.06
2022-12-11T04:03:46.673Z,100950.38
2022-12-11T04:06:13.114Z,100955.66
2022-12-11T04:08:39.568Z,100961.97
2022-12-11T04:11:24.774Z,100959.72
2022-12-11T04:14:11.211Z,100959.28
2022-12-11T04:16:37.810Z,100941.72
2022-12-11T04:19:23.371Z,100936.56
2022-12-11T04:22:08.575Z,100930.97
2022-12-11T04:24:35.046Z,100934.34
2022-12-11T04:27:01.500Z,100939.56
2022-12-11T04:29:27.994Z,100924.38
2022-12-11T04:31:54.510Z,100934.81
2022-12-11T04:34:22.378Z,100926.69
2022-12-11T04:36:48.798Z,100942.94
2022-12-11T04:39:15.326Z,100941.19
2022-12-11T04:41:41.792Z,100938.34
2022-12-11T04:44:08.516Z,100935.41
2022-12-11T04:46:35.203Z,100942.19
2022-12-11T04:49:01.777Z,100936.66
2022-12-11T04:51:28.819Z,100948.09
2022-12-11T04:53:55.660Z,100939.34
2022-12-11T04:56:22.123Z,100936.13
2022-12-11T04:58:49.598Z,100936.50
2022-12-11T05:01:21.558Z,100941.41
2022-12-11T05:03:48.406Z,100935.41
2022-12-11T05:06:15.371Z,100939.84
2022-12-11T05:08:42.967Z,100938.78
2022-12-11T05:11:11.805Z,100934.59
2022-12-11T05:13:38.923Z,100938.66
2022-12-11T05:16:06.609Z,100946.00
2022-12-11T05:18:33.347Z,100948.63
2022-12-11T05:21:05.913Z,100942.09
2022-12-11T05:23:32.946Z,100946.16
2022-12-11T05:26:07.730Z,100942.63
2022-12-11T05:28:36.322Z,100934.19
2022-12-11T05:31:08.563Z,100936.09
2022-12-11T05:33:35.047Z,100934.50
2022-12-11T05:36:01.614Z,100934.88
2022-12-11T05:38:28.068Z,100939.88
2022-12-11T05:41:01.500Z,100936.75
2022-12-11T05:43:29.861Z,100936.28
2022-12-11T05:45:56.970Z,100933.16
2022-12-11T05:48:23.423Z,100927.03
2022-12-11T05:50:59.767Z,100930.75
2022-12-11T05:53:26.732Z,100935.38
2022-12-11T05:55:53.747Z,100933.53
2022-12-11T05:58:20.549Z,100942.97
2022-12-11T06:00:48.065Z,100930.94
2022-12-11T06:03:14.636Z,100940.34
2022-12-11T06:05:42.420Z,100940.88
2022-12-11T06:08:09.245Z,100946.47
2022-12-11T06:10:35.799Z,100950.75
2022-12-11T06:13:02.235Z,100954.50
2022-12-11T06:15:28.698Z,100942.09
2022-12-11T06:17:55.128Z,100954.81
2022-12-11T06:20:21.573Z,100949.06
2022-12-11T06:22:48.073Z,100960.13
2022-12-11T06:25:14.514Z,100959.22
2022-12-11T06:27:40.948Z,100958.13
2022-12-11T06:30:08.174Z,100970.13
2022-12-11T06:32:34.640Z,100965.34
2022-12-11T06:35:01.059Z,100951.41
2022-12-11T06:37:27.495Z,100948.22
2022-12-11T06:39:53.948Z,100946.38
2022-12-11T06:42:20.405Z,100958.31
2022-12-11T06:44:46.840Z,100963.13
2022-12-11T06:47:13.290Z,100957.31
2022-12-11T06:49:39.721Z,100951.63
2022-12-11T06:52:06.308Z,100951.53
2022-12-11T06:54:32.814Z,100949.16
2022-12-11T06:56:59.267Z,100955.00
2022-12-11T06:59:25.781Z,100947.88
2022-12-11T07:01:52.342Z,100952.97
2022-12-11T07:04:18.839Z,100952.06
2022-12-11T07:06:47.457Z,100958.56
2022-12-11T07:09:13.868Z,100965.66
2022-12-11T07:11:40.325Z,100964.38
2022-12-11T07:14:06.839Z,100966.69
2022-12-11T07:16:33.445Z,100971.13
2022-12-11T07:19:00.613Z,100966.34
2022-12-11T07:21:27.083Z,100973.44
2022-12-11T07:23:53.540Z,100974.34
2022-12-11T07:26:22.182Z,100975.31
2022-12-11T07:28:49.142Z,100974.00
2022-12-11T07:31:18.240Z,100978.00
2022-12-11T07:33:45.048Z,100978.72
2022-12-11T07:36:13.977Z,100979.75
2022-12-11T07:38:41.163Z,100979.69
2022-12-11T07:41:11.125Z,100984.25
2022-12-11T07:43:37.677Z,100982.50
2022-12-11T07:46:07.762Z,100986.63
2022-12-11T07:48:38.565Z,100993.06
2022-12-11T07:51:16.898Z,100993.00
2022-12-11T07:53:45.201Z,100988.72
2022-12-11T07:56:13.058Z,100987.84
2022-12-11T07:58:39.610Z,100995.94
2022-12-11T08:01:36.695Z,101002.03
2022-12-11T08:04:05.159Z,100996.72
2022-12-11T08:06:34.552Z,100996.47
2022-12-11T08:09:02.074Z,100991.41
2022-12-11T08:11:29.247Z,101002.81
2022-12-11T08:13:56.349Z,101006.91
2022-12-11T08:16:23.096Z,100998.28
2022-12-11T08:18:49.600Z,101002.47
2022-12-11T08:21:21.946Z,101008.03
2022-12-11T08:23:49.258Z,100997.59
2022-12-11T08:26:18.825Z,101005.03
2022-12-11T08:28:45.408Z,100999.25
2022-12-11T08:31:13.390Z,101003.47
2022-12-11T08:33:40.483Z,100997.81
2022-12-11T08:36:08.679Z,101006.38
2022-12-11T08:38:35.706Z,100994.63
2022-12-11T08:41:19.757Z,100993.13
2022-12-11T08:43:46.773Z,100988.38
2022-12-11T08:46:13.620Z,100998.56
2022-12-11T08:48:42.154Z,100986.31
2022-12-11T08:51:12.052Z,100983.88
2022-12-11T08:53:39.624Z,100988.84
2022-12-11T08:56:17.404Z,100989.66
2022-12-11T08:58:44.582Z,100988.31
2022-12-11T09:01:13.455Z,100996.03
2022-12-11T09:03:40.715Z,100993.38
2022-12-11T09:06:09.320Z,100985.31
2022-12-11T09:08:39.464Z,100977.28
2022-12-11T09:11:15.015Z,100960.69
2022-12-11T09:13:42.137Z,100952.09
2022-12-11T09:16:10.926Z,100944.22
2022-12-11T09:18:38.138Z,100956.84
2022-12-11T09:21:13.583Z,100955.16
2022-12-11T09:23:40.598Z,100956.72
2022-12-11T09:26:08.994Z,100959.94
2022-12-11T09:28:35.518Z,100943.16
2022-12-11T09:31:02.028Z,100941.09
2022-12-11T09:33:32.637Z,100927.06
2022-12-11T09:36:00.273Z,100942.81
2022-12-11T09:38:27.129Z,100948.91
2022-12-11T09:40:53.978Z,100960.56
2022-12-11T09:43:46.950Z,100971.31
2022-12-11T09:46:16.406Z,100960.69
2022-12-11T09:48:47.348Z,100954.59
2022-12-11T09:51:43.720Z,100946.28
2022-12-11T09:54:13.665Z,100960.81
2022-12-11T09:57:03.247Z,100963.66
2022-12-11T09:59:44.729Z,100957.34
2022-12-11T10:02:42.460Z,100965.22
2022-12-11T10:05:38.290Z,100955.66
2022-12-11T10:08:14.027Z,100961.59
2022-12-11T10:10:43.782Z,100955.75
2022-12-11T10:13:16.372Z,100946.72
2022-12-11T10:15:57.535Z,100942.84
2022-12-11T10:18:29.305Z,100942.44
2022-12-11T10:20:56.882Z,100937.69
2022-12-11T10:23:43.786Z,100942.00
2022-12-11T10:26:18.864Z,100934.94
2022-12-11T10:28:45.578Z,100930.44
2022-12-11T10:31:27.956Z,100928.00
2022-12-11T10:34:02.754Z,100921.50
2022-12-11T10:36:35.406Z,100924.91
2022-12-11T10:39:02.453Z,100919.13
2022-12-11T10:41:40.095Z,100910.81
2022-12-11T10:44:17.680Z,100913.00
2022-12-11T10:46:47.247Z,100917.25
2022-12-11T10:49:43.804Z,100905.97
2022-12-11T10:52:12.748Z,100906.72
2022-12-11T10:54:48.926Z,100908.06
2022-12-11T10:57:25.507Z,100889.75
2022-12-11T10:59:55.550Z,100902.44
2022-12-11T11:02:30.687Z,100899.97
2022-12-11T11:04:59.469Z,100896.59
2022-12-11T11:07:28.434Z,100886.94
2022-12-11T11:10:18.365Z,100891.53
2022-12-11T11:12:47.592Z,100896.28
2022-12-11T11:15:20.027Z,100887.19
2022-12-11T11:17:54.937Z,100884.53
2022-12-11T11:20:27.628Z,100882.53
2022-12-11T11:22:57.493Z,100888.22
2022-12-11T11:25:29.472Z,100880.41
2022-12-11T11:27:58.376Z,100882.41
2022-12-11T11:30:27.529Z,100880.03
2022-12-11T11:33:00.785Z,100873.00
2022-12-11T11:35:28.780Z,100864.50
2022-12-11T11:37:59.891Z,100856.41
2022-12-11T11:40:30.436Z,100865.44
2022-12-11T11:43:11.188Z,100851.91
2022-12-11T11:46:23.786Z,100847.66
2022-12-11T11:49:01.008Z,100848.63
2022-12-11T11:51:34.146Z,100854.72
2022-12-11T11:54:09.648Z,100857.19
2022-12-11T11:56:37.796Z,100848.06
2022-12-11T11:59:14.539Z,100847.66
2022-12-11T12:01:42.769Z,100851.75
2022-12-11T12:04:09.497Z,100840.34
2022-12-11T12:07:17.591Z,100833.69
2022-12-11T12:10:12.511Z,100835.88
2022-12-11T12:13:10.846Z,100834.00
2022-12-11T12:15:55.511Z,100838.75
2022-12-11T12:18:49.313Z,100843.41
2022-12-11T12:21:35.145Z,100842.84
2022-12-11T12:24:18.373Z,100844.84
2022-12-11T12:26:52.284Z,100845.88
2022-12-11T12:29:43.438Z,100847.03
2022-12-11T12:32:20.340Z,100848.78
2022-12-11T12:34:57.746Z,100846.84
2022-12-11T12:37:58.272Z,100846.38
2022-12-11T12:40:51.647Z,100845.56
2022-12-11T12:43:47.462Z,100847.09
2022-12-11T12:46:45.322Z,100845.97
2022-12-11T12:49:17.559Z,100855.22
2022-12-11T12:51:44.713Z,100855.91
2022-12-11T12:54:15.747Z,100855.50
2022-12-11T12:56:43.766Z,100858.38
2022-12-11T12:59:27.214Z,100851.03
2022-12-11T13:01:57.472Z,100856.81
2022-12-11T13:04:54.911Z,100859.53
2022-12-11T13:07:27.215Z,100845.91
2022-12-11T13:10:08.015Z,100851.34
2022-12-11T13:12:44.615Z,100852.00
2022-12-11T13:15:25.381Z,100848.31
2022-12-11T13:17:51.845Z,100842.94
2022-12-11T13:20:23.148Z,100837.56
2022-12-11T13:23:07.810Z,100839.31
2022-12-11T13:25:51.311Z,100843.16
2022-12-11T13:28:25.801Z,100841.09
2022-12-11T13:31:28.704Z,100834.19
2022-12-11T13:33:56.806Z,100840.13
2022-12-11T13:36:27.946Z,100848.22
2022-12-11T13:39:20.911Z,100851.91
2022-12-11T13:41:50.695Z,100864.94
2022-12-11T13:44:22.996Z,100864.81
2022-12-11T13:46:52.347Z,100871.94
2022-12-11T13:49:22.679Z,100862.09
2022-12-11T13:51:57.465Z,100870.25
2022-12-11T13:54:24.753Z,100866.16
2022-12-11T13:57:00.410Z,100872.09
2022-12-11T13:59:37.946Z,100886.44
2022-12-11T14:02:13.635Z,100881.50
2022-12-11T14:04:40.332Z,100879.41
2022-12-11T14:07:08.331Z,100879.34
2022-12-11T14:09:39.059Z,100879.16
2022-12-11T14:12:05.795Z,100884.47
2022-12-11T14:14:44.854Z,100881.69
2022-12-11T14:17:15.693Z,100880.97
2022-12-11T14:19:47.027Z,100880.63
2022-12-11T14:22:20.209Z,100880.63
2022-12-11T14:24:54.506Z,100882.50
2022-12-11T14:27:21.861Z,100880.03
2022-12-11T14:29:49.277Z,100885.91
2022-12-11T14:32:33.019Z,100887.00
2022-12-11T14:35:00.897Z,100885.84
2022-12-11T14:37:28.668Z,100881.22
2022-12-11T14:40:08.935Z,100881.34
2022-12-11T14:42:43.929Z,100877.09
2022-12-11T14:45:28.839Z,100880.41
2022-12-11T14:47:56.398Z,100874.47
2022-12-11T14:50:27.088Z,100874.56
2022-12-11T14:52:57.448Z,100869.72
2022-12-11T14:55:30.145Z,100861.50
2022-12-11T14:57:59.265Z,100871.44
2022-12-11T15:00:29.104Z,100868.75
2022-12-11T15:03:04.581Z,100875.03
2022-12-11T15:05:37.107Z,100869.19
2022-12-11T15:08:10.276Z,100880.91
2022-12-11T15:10:41.306Z,100875.06
2022-12-11T15:13:08.858Z,100873.50
2022-12-11T15:15:46.623Z,100878.50
2022-12-11T15:18:21.358Z,100871.94
2022-12-11T15:20:52.722Z,100878.31
2022-12-11T15:23:19.922Z,100886.31
2022-12-11T15:25:53.268Z,100875.69
2022-12-11T15:28:30.775Z,100868.25
2022-12-11T15:31:00.660Z,100886.13
2022-12-11T15:33:33.917Z,100877.53
2022-12-11T15:36:06.613Z,100880.56
2022-12-11T15:38:36.412Z,100876.97
2022-12-11T15:41:04.164Z,100885.91
2022-12-11T15:43:33.108Z,100876.47
2022-12-11T15:45:59.726Z,100882.81
2022-12-11T15:48:27.042Z,100890.31
2022-12-11T15:50:53.792Z,100881.13
2022-12-11T15:53:20.347Z,100886.72
2022-12-11T15:55:47.205Z,100878.03
2022-12-11T15:58:16.232Z,100883.06
2022-12-11T16:00:43.098Z,100883.78
2022-12-11T16:03:13.163Z,100876.59
2022-12-11T16:05:40.482Z,100878.91
2022-12-11T16:08:07.864Z,100879.69
2022-12-11T16:10:34.534Z,100877.78
2022-12-11T16:13:02.662Z,100880.13
2022-12-11T16:15:29.925Z,100876.53
2022-12-11T16:18:01.808Z,100881.00
2022-12-11T16:20:29.122Z,100883.28
2022-12-11T16:22:55.743Z,100878.25
2022-12-11T16:25:22.370Z,100875.81
2022-12-11T16:27:48.880Z,100883.78
2022-12-11T16:30:15.563Z,100880.50
2022-12-11T16:32:42.578Z,100875.69
2022-12-11T16:35:09.513Z,100867.81
2022-12-11T16:37:36.349Z,100881.59
2022-12-11T16:40:03.199Z,100878.97
2022-12-11T16:42:29.761Z,100885.03
2022-12-11T16:45:07.193Z,100876.22
2022-12-11T16:47:34.139Z,100879.38
2022-12-11T16:50:01.056Z,100876.47
2022-12-11T16:52:28.647Z,100877.25
2022-12-11T16:54:56.962Z,100878.06
2022-12-11T16:57:24.131Z,100871.31
2022-12-11T16:59:50.669Z,100885.25
2022-12-11T17:02:19.167Z,100892.59
2022-12-11T17:04:52.118Z,100893.38
2022-12-11T17:07:20.905Z,100891.25
2022-12-11T17:09:48.068Z,100897.66
2022-12-11T17:12:15.049Z,100892.03
2022-12-11T17:14:42.081Z,100896.63
2022-12-11T17:17:09.229Z,100902.00
2022-12-11T17:19:36.460Z,100901.34
2022-12-11T17:22:03.549Z,100901.56
2022-12-11T17:24:30.201Z,100904.66
2022-12-11T17:26:56.946Z,100905.56
2022-12-11T17:29:23.594Z,100908.56
2022-12-11T17:31:50.083Z,100914.19
2022-12-11T17:34:16.696Z,100910.72
2022-12-11T17:36:43.415Z,100907.00
2022-12-11T17:39:10.083Z,100910.63
2022-12-11T17:41:36.676Z,100919.38
2022-12-11T17:44:03.224Z,100915.53
2022-12-11T17:46:29.783Z,100914.03
2022-12-11T17:48:56.736Z,100903.16
2022-12-11T17:51:26.309Z,100904.00
2022-12-11T17:53:55.477Z,100905.88
2022-12-11T17:56:22.416Z,100900.63
2022-12-11T17:58:48.955Z,100908.56
2022-12-11T18:01:15.995Z,100894.41
2022-12-11T18:03:42.606Z,100888.94
2022-12-11T18:06:12.308Z,100895.00
2022-12-11T18:08:39.643Z,100892.28
2022-12-11T18:11:08.846Z,100900.38
2022-12-11T18:13:35.589Z,100895.41
2022-12-11T18:16:08.545Z,100905.38
2022-12-11T18:18:35.384Z,100888.91
2022-12-11T18:21:02.104Z,100895.31
2022-12-11T18:23:28.668Z,100893.16
2022-12-11T18:25:55.409Z,100889.31
2022-12-11T18:28:22.155Z,100896.50
2022-12-11T18:30:48.672Z,100891.84
2022-12-11T18:33:15.244Z,100900.47
2022-12-11T18:35:41.940Z,100897.13
2022-12-11T18:38:08.619Z,100898.75
2022-12-11T18:40:35.080Z,100900.84
2022-12-11T18:43:01.732Z,100909.13
2022-12-11T18:45:28.557Z,100897.69
2022-12-11T18:47:56.616Z,100899.72
2022-12-11T18:50:23.653Z,100902.00
2022-12-11T18:52:57.280Z,100898.94
2022-12-11T18:55:23.741Z,100893.44
2022-12-11T18:57:50.269Z,100904.63
2022-12-11T19:00:18.137Z,100899.31
2022-12-11T19:02:44.797Z,100901.31
2022-12-11T19:05:12.449Z,100903.03
2022-12-11T19:07:39.300Z,100898.97
2022-12-11T19:10:06.740Z,100901.97
2022-12-11T19:12:34.187Z,100910.13
2022-12-11T19:15:00.628Z,100903.19
2022-12-11T19:17:27.400Z,100900.69
2022-12-11T19:19:53.845Z,100913.25
2022-12-11T19:22:27.540Z,100915.59
2022-12-11T19:24:54.365Z,100913.66
2022-12-11T19:27:20.815Z,100912.97
2022-12-11T19:29:47.304Z,100921.22
2022-12-11T19:32:13.805Z,100915.72
2022-12-11T19:34:41.197Z,100914.72
2022-12-11T19:37:07.883Z,100920.19
2022-12-11T19:39:34.505Z,100916.78
2022-12-11T19:42:01.012Z,100918.03
2022-12-11T19:44:27.543Z,100918.69
2022-12-11T19:46:54.100Z,100918.44
2022-12-11T19:49:20.898Z,100913.16
2022-12-11T19:51:47.628Z,100920.66
2022-12-11T19:54:15.519Z,100919.72
2022-12-11T19:56:42.982Z,100923.31
2022-12-11T19:59:13.903Z,100922.47
2022-12-11T20:01:40.449Z,100918.75
2022-12-11T20:04:11.887Z,100911.78
2022-12-11T20:06:40.966Z,100914.41
2022-12-11T20:09:10.928Z,100923.22
2022-12-11T20:11:39.657Z,100909.47
2022-12-11T20:14:06.484Z,100922.69
2022-12-11T20:17:02.155Z,100920.56
2022-12-11T20:19:20.096Z,100922.34
2022-12-11T20:21:46.576Z,100922.16
2022-12-11T20:24:13.224Z,100917.06
2022-12-11T20:26:39.841Z,100917.38
2022-12-11T20:29:08.286Z,100919.34
2022-12-11T20:31:35.945Z,100920.44
2022-12-11T20:34:02.921Z,100912.06
2022-12-11T20:36:32.636Z,100918.50
2022-12-11T20:38:59.220Z,100924.13
2022-12-11T20:41:27.239Z,100919.81
2022-12-11T20:43:56.603Z,100920.84
2022-12-11T20:46:25.419Z,100924.09
2022-12-11T20:48:52.397Z,100915.31
2022-12-11T20:51:25.668Z,100905.53
2022-12-11T20:53:58.357Z,100905.78
2022-12-11T20:56:27.122Z,100915.47
2022-12-11T20:58:53.668Z,100916.72
2022-12-11T21:01:22.554Z,100907.66
2022-12-11T21:03:49.462Z,100909.94
2022-12-11T21:06:25.836Z,100909.91
2022-12-11T21:08:53.335Z,100908.25
2022-12-11T21:11:23.259Z,100912.34
2022-12-11T21:13:50.572Z,100910.75
2022-12-11T21:16:17.310Z,100907.16
2022-12-11T21:18:44.366Z,100919.94
2022-12-11T21:21:11.236Z,100924.59
2022-12-11T21:23:37.772Z,100913.91
2022-12-11T21:26:04.329Z,100907.72
2022-12-11T21:28:35.446Z,100912.81
2022-12-11T21:31:05.541Z,100913.78
2022-12-11T21:33:32.083Z,100914.72
2022-12-11T21:36:01.685Z,100921.69
2022-12-11T21:38:28.889Z,100908.53
2022-12-11T21:40:56.051Z,100912.41
2022-12-11T21:43:23.326Z,100921.47
2022-12-11T21:46:06.135Z,100916.84
2022-12-11T21:48:32.888Z,100919.00
2022-12-11T21:51:12.216Z,100915.94
2022-12-11T21:53:38.927Z,100900.78
2022-12-11T21:56:10.312Z,100911.41
2022-12-11T21:58:38.059Z,100906.59
2022-12-11T22:01:09.895Z,100909.66
2022-12-11T22:03:36.554Z,100908.38
2022-12-11T22:06:03.058Z,100911.53
2022-12-11T22:08:29.564Z,100917.91
2022-12-11T22:10:56.789Z,100915.88
2022-12-11T22:13:23.528Z,100919.25
2022-12-11T22:15:52.213Z,100917.72
2022-12-11T22:18:19.282Z,100923.81
2022-12-11T22:20:45.912Z,100917.59
2022-12-11T22:23:12.579Z,100921.00
2022-12-11T22:25:39.752Z,100925.06
2022-12-11T22:28:06.222Z,100920.72
2022-12-11T22:30:32.792Z,100924.09
2022-12-11T22:33:00.280Z,100920.78
2022-12-11T22:35:27.476Z,100925.66
2022-12-11T22:37:54.297Z,100922.25
2022-12-11T22:40:20.958Z,100927.56
2022-12-11T22:42:47.393Z,100927.84
2022-12-11T22:45:14.287Z,100925.66
2022-12-11T22:47:41.034Z,100924.13
2022-12-11T22:50:08.316Z,100918.50
2022-12-11T22:52:34.828Z,100911.53
2022-12-11T22:55:02.438Z,100921.72
2022-12-11T22:57:29.069Z,100927.91
2022-12-11T22:59:57.063Z,100922.38
2022-12-11T23:02:24.306Z,100919.88
2022-12-11T23:04:50.958Z,100924.38
2022-12-11T23:07:17.524Z,100918.91
2022-12-11T23:09:44.811Z,100923.16
2022-12-11T23:12:11.376Z,100916.84
2022-12-11T23:14:38.071Z,100913.53
2022-12-11T23:17:04.571Z,100911.34
2022-12-11T23:19:31.187Z,100906.22
2022-12-11T23:21:58.046Z,100914.06
2022-12-11T23:24:24.494Z,100921.09
2022-12-11T23:26:50.919Z,100913.00
2022-12-11T23:29:17.368Z,100925.94
2022-12-11T23:31:43.847Z,100930.69
2022-12-11T23:34:10.379Z,100929.91
2022-12-11T23:36:36.884Z,100915.16
2022-12-11T23:39:03.930Z,100919.19
2022-12-11T23:41:30.433Z,100925.09
2022-12-11T23:43:56.904Z,100923.03
2022-12-11T23:46:24.376Z,100919.16
2022-12-11T23:48:52.568Z,100912.56
2022-12-11T23:51:20.407Z,100917.84
2022-12-11T23:53:47.379Z,100922.47
2022-12-11T23:56:23.507Z,100923.91
2022-12-11T23:58:50.805Z,100923.91
